Rancho Park, California
Current Conditions -  °F | °C
As of 4:51 PM on Saturday 22 Nov 2014 (Local Time) from KSMO Reporting Station
Clear Clear  
Wind Chill: 65°   Ceiling: Unl
Heat Index: 65°   Visibility: 10mi
Dew Point: 53°   Wind: 5mph
Humidity: 65%   Direction: 220°SW
Pressure: 30.01"   Gusts: NA
Location:  34.0365°N, 118.425°W
Report Text: KSMO 230051Z 22004KT 10SM CLR 18/12 A3001 RMK AO2 SLP160 T01830117 $
Loading
Personal Weather Stations






























Interactive Weather Map New forecast layout! Learn more

10-Day Weather Forecast

Advertisements
Track Severe Weather on mobile